This site, now in its 15th season, is a labour of love and fun from one of Ottawa's most avid time trialists and number crunchers. It adheres to and is permitted by the laws of Canada, promotes the objectives of every bicycle club whose results are shown, and is donated free of charge by myself for your enjoyment and usage. If you would like results from series you ride in to be shown here, give me (celia@drmath.ca) a shout!


Index Page
ATT OTT WTT AATT CFCTT VVVTT
Help resultformat:
Case-sensitive

OBC Open TT Series - 1993-Jun-30 - 15km (Rockliffe Pkwy) (EvtFactor = 0.9504)

Weather (18:00): Mainly Clear. Temp.: 23.4C, Humidity: 37%, DewPoint: 7.9C, Wind: NNE 9km/h, Pressure: 100.34kPa, Visibility: 40.2km.
Weather (19:00): Clear. Temp.: 23.3C, Humidity: 35%, DewPoint: 7.0C, Wind: NNW 13km/h, Pressure: 100.34kPa, Visibility: 40.2km.
Weather (20:00): Clear. Temp.: 22.5C, Humidity: 37%, DewPoint: 7.1C, Wind: NNW 11km/h, Pressure: 100.34kPa, Visibility: 40.2km.

Send photos with description (when/where/what) of yourself on or off of bike to celia@drmath.ca

 
 

BESTS?
 
1 White, Paul --- 19:41 45.724 1/54 OSEM 1/21  
Y 2 Roy, Patrick OBC 19:46 45.531 2/54 OVAM 1/17  
3 Large, John --- 19:48 45.455 3/54 OSEM 2/21 1.0358
4 Bachman, Paul --- 20:32 43.831 4/54 OSEM 3/21 1.0954
5 Burge, Craig  --- 20:39 43.584 5/54 OSEM 4/21 1.0098
Cowan, Norman  OBC 20:39 43.584 5/54 OVAM 2/17 0.9928
7 Georgas, Chris OBC 20:50 43.200 7/54 OVBM 1/6 1.0266
8 Aller, Brian OBC 20:52 43.131 8/54 OVAM 3/17 1.0537
Stephenson, Jamie OBC 20:52 43.131 8/54 OSEM 5/21 1.1169
10 Simpson, Bob OBC 20:55 43.028 10/54 OVBM 2/6 0.9810
11 Metuzals, Peter --- 21:11 42.486 11/54 OVAM 4/17  
Parkin, Brian --- 21:11 42.486 11/54 OVAM 4/17 1.0237
Rydeard, Kevin OBC 21:11 42.486 11/54 OVAM 4/17  
14 Phair, Terry OBC 21:14 42.386 14/54 OVBM 3/6  
15 Moerman, Bram  OBC 21:21 42.155 15/54 OVBM 4/6 1.0573
16 Greenberg, Mike OBC 21:22 42.122 16/54 OSEM 6/21 1.0867
17 Ferguson, James --- 21:29 41.893 17/54 OSEM 7/21 1.0521
18 Fairhead, Denis OBC 21:33 41.763 18/54 OVAM 7/17 1.1031
19 St-Amour, Pierre OBC 21:38 41.602 19/54 OVAM 8/17 1.0233
20 Vezina, Patrick --- 21:46 41.348 20/54 OSEM 8/21 1.0138
21 MacDonald, Ryan OBC 21:52 41.159 21/54 OSEM 9/21 1.0441
22 Carroll, Roger OBC 21:53 41.127 22/54 OSEM 10/21 0.9954
23 McCutcheon, Drew --- 21:54 41.096 23/54 OSEM 11/21 1.1761
24 Jensen, Prapti OBC 22:00 40.909 24/54 OSEF 1/5 1.0298
25 Daniels, Phillip OBC 22:26 40.119 25/54 OSEM 12/21 1.0225
A 26 Risso, Barthelemey --- 22:27 40.089 26/54 OVCM 1/1  
27 Bachman, Mike --- 22:32 39.941 27/54 OVBM 5/6 1.1343
28 Bence, John OBC 22:33 39.911 28/54 OSEM 13/21 1.2283
29 Thériault, Louis OBC 22:38 39.764 29/54 OSEM 14/21  
30 Reinisch, Stephen OBC 22:46 39.531 30/54 OSEM 15/21 0.9674
Visser, Werner --- 22:46 39.531 30/54 OSEM 15/21  
32 Paterson, Gail OBC 22:51 39.387 32/54 OSEF 2/5 1.0694
33 Chen, Jonathan --- 22:59 39.159 33/54 OSEM 17/21 1.6004
34 Stewart, Ian OBC 23:05 38.989 34/54 OVAM 9/17 1.0686
35 Hollywood, Brandon OBC 23:08 38.905 35/54 OSEM 18/21  
36 White, Chris --- 23:09 38.877 36/54 OVAM 10/17  
37 Hull, Alec OBC 23:16 38.682 37/54 OSEM 19/21  
38 Boileau, Greg OBC 23:21 38.544 38/54 OJUM 1/2 1.2029
39 Yachuk, Dwight OBC 23:28 38.352 39/54 OVAM 11/17  
40 Taylor, Craig --- 23:41 38.001 40/54 OVAM 12/17  
41 Anderson, Allan OBC 23:51 37.736 41/54 OVAM 13/17  
Y 42 Hays, Ryan OBC 23:59 37.526 42/54 U18M 1/1 1.0509
Montag, Daniel OBC 23:59 37.526 42/54 OVAM 14/17  
44 Boissonneault, France OBC 24:05 37.370 44/54 OSEF 3/5 1.1639
45 Somogyi, Michel OBC 24:08 37.293 45/54 OJUM 2/2 1.0962
46 Hollywood, Rudy OBC 24:47 36.315 46/54 OVBM 6/6 1.0513
47 Caron, Vianney OBC 24:51 36.217 47/54 OVAM 15/17 1.1170
48 Scruton, Robert OBC 25:24 35.433 48/54 OSEM 20/21  
49 Ablett, Jim OBC 25:41 35.042 49/54 OVAM 16/17  
50 Roy, Kathy --- 26:02 34.571 50/54 OSEF 4/5  
51 James, Peter OBC 26:43 33.687 51/54 OVAM 17/17 1.0437
52 Oligny, Diane OBC 27:25 32.827 52/54 OSEF 5/5  
Y 53 James, Stuart OBC 28:12 31.915 53/54 OPWM 1/1 1.3500
54 Rochon, Francois OBC 29:16 30.752 54/54 OSEM 21/21 1.1025
 
Average Speed of all of the above 54 finishes (810km in 20:31:38):39.460
>>>Average of the Average Speeds for these 54 finishes39.763<<<
 

The number of data records shown above is 54
The server processing of your query took: 1 wallclock secs ( 0.11 usr + 0.01 sys = 0.12 CPU)

Thanks to our Helpers: Jean-Yves Guenette, Monique Mnard.

     


Apr 9 (Good Friday) Apr 15 Apr 22 (cancelled) Apr 27 Apr 29
May 4 (10km) May 6 May 11 May 11 (10km) May 13 (22km) May 16 (40km) May 18 May 18 (10km) May 20 May 25 May 25 (10km) May 27 (38km) May 30 (40km)
Jun 1 Jun 3 Jun 8 Jun 10 (22km) Jun 15 Jun 17 Jun 22 Jun 22 Jun 24 (38km) Jun 25 Jun 27 (40km/80km) Jun 29 Jun 29
  Jun 30  
Jul 6 Jul 6 Jul 8 Jul 13 Jul 13 Jul 15 (38km) Jul 20 Jul 20 Jul 22 Jul 25 (80km) Jul 27 Jul 29 (22km)
Aug 3 Aug 3 Aug 5 Aug 7 (38km) Aug 10 Aug 10 Aug 12 Aug 15 (40km/80km) Aug 17 Aug 19 Aug 21 (22km) Aug 24 Aug 24 Aug 26 Aug 29 (40km) Aug 31 (Invitational)
Sep 2 Sep 7 Sep 9 Sep 14 Sep 16 Sep 25 (40km)

OTT Rankings
Best       Best by category
WTT Rankings for OBC Members
5 Best 15km     5 Best 15km by category
OBC Member Best Three 15km Rankings
Overall     by category
OBC BAR Ranking
Overall     by category     Rider "Consistency-Graph"
ABC BAR Ranking
Overall     by category     Rider "Consistency-Graph"
Other years
TT Calculator All TT People All TT events
ABC Home VVV Home
CKAP GOLD MEDAL
Other Links

Please send your comments and suggestions to: Celia McInnis
Copyright © 1998-2011 Celia McInnis. All rights reserved. Links are welcomed.